Time;durP1;ratioP1;P1;durP2;ratioP2;P2;SDS_P1;SDS_P2;PMS_P1;PMS_P2;Temp;Humidity;BMP_temperature;BMP_pressure;BME280_temperature;BME280_humidity;BME280_pressure;Samples;Min_cycle;Max_cycle;Signal;HPM_P1;HPM_P2
2022/12/25 00:01:32;;;;;;;8.18;4.43;;;;;13.50;101204.00;;;;5054700;28;20207;-76
2022/12/25 00:03:59;;;;;;;12.20;4.88;;;;;13.50;101205.00;;;;5053875;28;20565;-76
2022/12/25 00:06:27;;;;;;;7.30;3.85;;;;;13.50;101202.00;;;;5049953;28;20677;-76
2022/12/25 00:08:54;;;;;;;10.55;3.88;;;;;13.60;101200.00;;;;5053183;28;20200;-76
2022/12/25 00:11:23;;;;;;;9.88;4.28;;;;;13.60;101187.00;;;;5050931;28;20196;-76
2022/12/25 00:13:50;;;;;;;8.20;4.60;;;;;13.60;101186.00;;;;5050976;28;20226;-76
2022/12/25 00:16:20;;;;;;;10.32;4.30;;;;;13.60;101181.00;;;;5068761;28;20202;-76
2022/12/25 00:18:48;;;;;;;11.13;4.25;;;;;13.70;101187.00;;;;5049414;28;20203;-76
2022/12/25 00:21:15;;;;;;;8.98;4.43;;;;;13.70;101191.00;;;;5049009;28;21015;-76
2022/12/25 00:23:43;;;;;;;7.10;3.55;;;;;13.80;101188.00;;;;5049247;28;20207;-76
2022/12/25 00:26:13;;;;;;;9.02;4.18;;;;;13.80;101197.00;;;;5053650;28;20616;-76
2022/12/25 00:28:42;;;;;;;11.73;4.13;;;;;13.80;101200.00;;;;5066708;28;20191;-76
2022/12/25 00:31:11;;;;;;;8.93;3.90;;;;;13.90;101190.00;;;;5066898;28;20199;-76
2022/12/25 00:33:40;;;;;;;9.05;4.20;;;;;13.90;101197.00;;;;5066496;28;20222;-75
2022/12/25 00:36:09;;;;;;;9.57;3.22;;;;;13.90;101189.00;;;;5060283;28;20191;-76
2022/12/25 00:38:38;;;;;;;11.35;4.00;;;;;14.00;101183.00;;;;5060924;28;20668;-76
2022/12/25 00:41:07;;;;;;;10.57;4.05;;;;;14.00;101181.00;;;;5050837;28;20203;-76
2022/12/25 00:43:34;;;;;;;11.30;4.00;;;;;14.00;101187.00;;;;5057517;28;20226;-76
2022/12/25 00:46:05;;;;;;;8.40;3.20;;;;;14.10;101194.00;;;;5058903;28;20206;-76
2022/12/25 00:48:33;;;;;;;11.68;4.32;;;;;14.10;101185.00;;;;5058529;28;20195;-76
2022/12/25 00:51:02;;;;;;;6.65;3.70;;;;;14.10;101191.00;;;;5060369;28;20214;-76
2022/12/25 00:53:30;;;;;;;14.27;3.75;;;;;14.20;101188.00;;;;5063630;28;20233;-76
2022/12/25 00:55:59;;;;;;;9.50;3.80;;;;;14.20;101195.00;;;;5058753;28;20199;-76
2022/12/25 00:58:28;;;;;;;11.10;3.83;;;;;14.20;101204.00;;;;5055120;28;20200;-76
2022/12/25 01:00:56;;;;;;;6.53;3.47;;;;;14.30;101199.00;;;;5056325;28;20199;-76
2022/12/25 01:03:25;;;;;;;7.70;3.40;;;;;14.30;101198.00;;;;5060502;28;20253;-76
2022/12/25 01:05:57;;;;;;;9.57;4.05;;;;;14.30;101199.00;;;;5048704;28;20215;-76
2022/12/25 01:08:24;;;;;;;9.38;4.03;;;;;14.40;101188.00;;;;5047241;28;20200;-76
2022/12/25 01:10:55;;;;;;;7.35;2.95;;;;;14.40;101194.00;;;;5048600;28;20198;-76
2022/12/25 01:13:22;;;;;;;5.25;3.22;;;;;14.40;101197.00;;;;5047559;28;20794;-76
2022/12/25 01:15:50;;;;;;;6.03;3.22;;;;;14.40;101202.00;;;;5051014;28;20708;-76
2022/12/25 01:18:18;;;;;;;9.90;3.50;;;;;14.50;101210.00;;;;5048339;28;20191;-76
2022/12/25 01:20:47;;;;;;;8.48;3.78;;;;;14.50;101215.00;;;;5048133;28;20220;-76
2022/12/25 01:23:15;;;;;;;8.05;3.22;;;;;14.50;101217.00;;;;5051089;28;20199;-76
2022/12/25 01:25:42;;;;;;;8.40;3.50;;;;;14.50;101209.00;;;;5054973;28;20680;-76
2022/12/25 01:28:10;;;;;;;10.10;3.42;;;;;14.60;101208.00;;;;5060400;28;20214;-76
2022/12/25 01:30:37;;;;;;;8.25;3.72;;;;;14.60;101222.00;;;;5059671;28;20195;-76
2022/12/25 01:33:04;;;;;;;9.48;3.20;;;;;14.60;101226.00;;;;5063824;28;20474;-76
2022/12/25 01:35:31;;;;;;;8.00;2.95;;;;;14.60;101217.00;;;;5055843;28;20227;-76
2022/12/25 01:38:00;;;;;;;9.10;3.50;;;;;14.70;101220.00;;;;5066168;28;20202;-76
2022/12/25 01:40:27;;;;;;;3.83;3.13;;;;;14.70;101212.00;;;;5061430;28;20195;-76
2022/12/25 01:42:54;;;;;;;8.98;4.20;;;;;14.70;101203.00;;;;5050130;28;20232;-76
2022/12/25 01:45:41;;;;;;;7.13;3.38;;;;;14.60;101191.00;;;;5047914;28;20199;-76
2022/12/25 01:48:13;;;;;;;4.82;2.97;;;;;14.70;101200.00;;;;5060611;28;20202;-76
2022/12/25 01:50:44;;;;;;;6.32;3.97;;;;;14.70;101195.00;;;;5055991;28;20206;-76
2022/12/25 01:53:13;;;;;;;9.38;3.58;;;;;14.70;101198.00;;;;5047054;28;20811;-76
2022/12/25 01:55:42;;;;;;;8.50;3.95;;;;;14.70;101202.00;;;;5055854;28;20202;-75
2022/12/25 01:58:09;;;;;;;5.43;3.42;;;;;14.70;101198.00;;;;5047888;28;20211;-76
2022/12/25 02:00:36;;;;;;;10.30;4.28;;;;;14.70;101207.00;;;;5055447;28;20188;-76
2022/12/25 02:03:04;;;;;;;8.10;3.33;;;;;14.70;101206.00;;;;5055994;28;20196;-76
2022/12/25 02:05:33;;;;;;;6.15;3.72;;;;;14.70;101202.00;;;;5056838;28;20206;-76
2022/12/25 02:08:04;;;;;;;7.22;3.78;;;;;14.70;101210.00;;;;5053414;28;20200;-76
2022/12/25 02:10:32;;;;;;;5.00;3.28;;;;;14.70;101198.00;;;;5054888;28;20206;-76
2022/12/25 02:13:00;;;;;;;8.02;4.03;;;;;14.60;101196.00;;;;5057312;28;20286;-76
2022/12/25 02:15:34;;;;;;;7.32;3.47;;;;;14.60;101199.00;;;;5054345;28;20198;-77
2022/12/25 02:18:09;;;;;;;5.22;3.63;;;;;14.60;101211.00;;;;5050800;28;20180;-76
2022/12/25 02:21:05;;;;;;;7.75;3.83;;;;;14.60;101204.00;;;;5051252;28;21037;-76
2022/12/25 02:24:09;;;;;;;6.25;3.97;;;;;14.60;101204.00;;;;5061693;28;20203;-76
2022/12/25 02:27:02;;;;;;;5.22;3.30;;;;;14.60;101206.00;;;;5054627;28;20204;-76
2022/12/25 02:29:39;;;;;;;7.63;3.45;;;;;14.60;101203.00;;;;5052086;28;21152;-76
2022/12/25 02:32:14;;;;;;;5.25;3.22;;;;;14.60;101201.00;;;;5046888;28;20222;-76
2022/12/25 02:34:47;;;;;;;6.90;3.63;;;;;14.60;101197.00;;;;5046472;28;20234;-76
2022/12/25 02:37:22;;;;;;;7.20;3.97;;;;;14.60;101206.00;;;;5046005;28;20220;-76
2022/12/25 02:39:59;;;;;;;5.70;3.42;;;;;14.60;101202.00;;;;5050075;28;20214;-76
2022/12/25 03:07:43;;;;;;;7.80;4.03;;;;;14.60;101164.00;;;;5057628;28;20589;-76
2022/12/25 03:13:02;;;;;;;10.02;4.28;;;;;14.70;101147.00;;;;5056980;28;20210;-76
2022/12/25 03:18:23;;;;;;;6.63;3.38;;;;;14.70;101140.00;;;;5056897;28;20580;-76
2022/12/25 03:29:09;;;;;;;6.43;3.05;;;;;14.80;101142.00;;;;5056280;28;20194;-76
2022/12/25 03:31:43;;;;;;;7.97;3.80;;;;;14.80;101136.00;;;;5059598;28;20199;-76
2022/12/25 04:36:10;;;;;;;6.30;3.17;;;;;14.40;101141.00;;;;5058711;28;20193;-76
2022/12/25 04:38:38;;;;;;;6.28;2.83;;;;;14.40;101134.00;;;;5062328;28;20223;-76
2022/12/25 04:41:07;;;;;;;5.47;2.63;;;;;14.30;101135.00;;;;5059725;28;20206;-76
2022/12/25 04:43:34;;;;;;;4.82;2.88;;;;;14.30;101129.00;;;;5056753;28;20235;-76
2022/12/25 04:46:02;;;;;;;4.05;2.70;;;;;14.30;101128.00;;;;5055069;28;20569;-76
2022/12/25 04:48:32;;;;;;;6.40;2.78;;;;;14.30;101130.00;;;;5056625;28;20205;-76
2022/12/25 04:51:09;;;;;;;5.30;3.05;;;;;14.30;101131.00;;;;5056188;28;20191;-76
2022/12/25 04:53:36;;;;;;;3.53;2.63;;;;;14.30;101130.00;;;;5061149;28;20208;-76
2022/12/25 04:56:04;;;;;;;5.53;3.00;;;;;14.20;101133.00;;;;5053414;28;20203;-76
2022/12/25 04:58:33;;;;;;;4.70;3.03;;;;;14.20;101135.00;;;;5050317;28;20195;-76
2022/12/25 05:01:01;;;;;;;5.20;3.10;;;;;14.20;101136.00;;;;5051280;28;20666;-76
2022/12/25 05:03:28;;;;;;;4.65;3.20;;;;;14.20;101127.00;;;;5051066;28;20188;-76
2022/12/25 05:05:56;;;;;;;4.97;2.65;;;;;14.20;101112.00;;;;5053660;28;20207;-76
2022/12/25 05:08:23;;;;;;;4.82;2.97;;;;;14.20;101113.00;;;;5055727;28;20270;-76
2022/12/25 05:10:52;;;;;;;3.88;2.33;;;;;14.20;101126.00;;;;5054909;28;20192;-76
2022/12/25 05:13:19;;;;;;;5.63;2.85;;;;;14.20;101115.00;;;;5051300;28;20198;-76
2022/12/25 05:15:48;;;;;;;4.90;2.63;;;;;14.10;101122.00;;;;5048837;28;20228;-76
2022/12/25 05:18:15;;;;;;;4.57;2.70;;;;;14.20;101110.00;;;;5051963;28;20203;-76
2022/12/25 05:20:43;;;;;;;8.07;2.97;;;;;14.20;101096.00;;;;5052759;28;20290;-76
2022/12/25 05:23:11;;;;;;;3.22;2.20;;;;;14.20;101090.00;;;;5048505;28;20197;-76
2022/12/25 05:25:40;;;;;;;3.25;2.42;;;;;14.20;101087.00;;;;5055937;28;20207;-76
2022/12/25 05:28:07;;;;;;;3.00;2.33;;;;;14.20;101085.00;;;;5060090;28;20219;-76
2022/12/25 05:30:34;;;;;;;3.15;2.03;;;;;14.20;101073.00;;;;5048034;28;20195;-77
2022/12/25 05:33:03;;;;;;;3.85;2.75;;;;;14.20;101081.00;;;;5052813;28;20187;-77
2022/12/25 05:35:31;;;;;;;3.92;2.53;;;;;14.20;101072.00;;;;5057683;28;20219;-77
2022/12/25 05:37:58;;;;;;;4.18;1.85;;;;;14.20;101068.00;;;;5065085;28;20217;-77
2022/12/25 05:40:25;;;;;;;4.70;1.90;;;;;14.20;101076.00;;;;5060209;28;20203;-77
2022/12/25 05:42:52;;;;;;;6.38;2.53;;;;;14.20;101082.00;;;;5066153;28;20245;-77
2022/12/25 05:45:20;;;;;;;3.35;2.17;;;;;14.20;101082.00;;;;5054214;28;20194;-77
2022/12/25 05:47:47;;;;;;;4.15;2.17;;;;;14.20;101082.00;;;;5048880;28;20200;-77
2022/12/25 05:50:16;;;;;;;3.00;2.28;;;;;14.20;101068.00;;;;5048360;28;20196;-77
2022/12/25 05:52:43;;;;;;;4.07;3.03;;;;;14.20;101071.00;;;;5048000;28;20198;-77
2022/12/25 05:55:10;;;;;;;3.40;2.38;;;;;14.20;101077.00;;;;5049598;28;20219;-77
2022/12/25 05:57:38;;;;;;;4.05;2.67;;;;;14.20;101080.00;;;;5057909;28;20689;-77
2022/12/25 06:00:07;;;;;;;4.57;2.65;;;;;14.20;101084.00;;;;5055396;28;20192;-77
2022/12/25 06:02:35;;;;;;;3.05;2.25;;;;;14.20;101087.00;;;;5046272;28;20188;-77
2022/12/25 06:05:02;;;;;;;3.75;2.15;;;;;14.30;101073.00;;;;5053388;28;20199;-77
2022/12/25 06:07:31;;;;;;;3.45;2.45;;;;;14.20;101058.00;;;;5054559;28;20210;-77
2022/12/25 06:09:58;;;;;;;4.03;2.55;;;;;14.30;101059.00;;;;5050284;28;20202;-77
2022/12/25 06:12:25;;;;;;;4.28;2.05;;;;;14.30;101057.00;;;;5048684;28;20196;-77
2022/12/25 06:14:53;;;;;;;4.75;2.65;;;;;14.30;101047.00;;;;5051835;28;20219;-77
2022/12/25 06:17:21;;;;;;;3.78;2.50;;;;;14.30;101045.00;;;;5065438;28;20195;-77
2022/12/25 06:19:49;;;;;;;4.07;2.55;;;;;14.30;101048.00;;;;5051555;28;20203;-77
2022/12/25 06:22:16;;;;;;;5.15;2.53;;;;;14.30;101047.00;;;;5058946;28;20200;-77
2022/12/25 06:24:44;;;;;;;4.00;2.65;;;;;14.30;101062.00;;;;5056676;28;20203;-77
2022/12/25 06:27:12;;;;;;;4.15;2.85;;;;;14.30;101064.00;;;;5057108;28;20195;-77
2022/12/25 06:29:39;;;;;;;3.97;2.60;;;;;14.30;101064.00;;;;5061919;28;20206;-77
2022/12/25 06:32:07;;;;;;;5.03;2.85;;;;;14.30;101068.00;;;;5059879;28;20200;-77
2022/12/25 06:34:35;;;;;;;6.00;2.83;;;;;14.30;101068.00;;;;5059732;28;20219;-77
2022/12/25 06:37:02;;;;;;;5.47;2.95;;;;;14.40;101058.00;;;;5062445;28;20204;-77
2022/12/25 06:39:30;;;;;;;5.25;2.90;;;;;14.40;101046.00;;;;5060123;28;20196;-77
2022/12/25 06:41:58;;;;;;;4.18;2.78;;;;;14.40;101049.00;;;;5067408;28;20198;-77
2022/12/25 06:44:26;;;;;;;4.90;2.50;;;;;14.40;101039.00;;;;5059359;28;20196;-77
2022/12/25 06:46:54;;;;;;;4.35;2.25;;;;;14.40;101039.00;;;;5060251;28;20194;-77
2022/12/25 06:49:22;;;;;;;3.45;2.35;;;;;14.50;101045.00;;;;5057927;28;20218;-77
2022/12/25 06:51:49;;;;;;;3.78;2.15;;;;;14.50;101035.00;;;;5050083;28;20211;-77
2022/12/25 06:54:16;;;;;;;4.28;2.33;;;;;14.50;101036.00;;;;5050283;28;20195;-77
2022/12/25 06:56:44;;;;;;;4.57;2.20;;;;;14.50;101026.00;;;;5050311;28;20290;-77
2022/12/25 06:59:12;;;;;;;4.22;2.50;;;;;14.50;101015.00;;;;5050361;28;20191;-77
2022/12/25 07:01:44;;;;;;;6.13;3.03;;;;;14.50;101015.00;;;;5059256;28;20195;-77
2022/12/25 07:04:15;;;;;;;7.15;2.65;;;;;14.60;101009.00;;;;5052708;28;20199;-77
2022/12/25 07:06:42;;;;;;;5.57;2.25;;;;;14.60;101006.00;;;;5051965;28;20587;-77
2022/12/25 07:09:09;;;;;;;5.13;2.53;;;;;14.60;101014.00;;;;5058400;28;20199;-77
2022/12/25 07:11:37;;;;;;;5.05;2.80;;;;;14.60;101017.00;;;;5051039;28;20208;-77
2022/12/25 07:14:04;;;;;;;4.13;2.42;;;;;14.60;101025.00;;;;5058095;28;20194;-77
2022/12/25 07:16:33;;;;;;;4.97;2.75;;;;;14.60;101021.00;;;;5059906;28;20233;-77
2022/12/25 07:19:00;;;;;;;4.75;1.98;;;;;14.60;101029.00;;;;5059786;28;20191;-78
2022/12/25 07:21:28;;;;;;;4.90;2.20;;;;;14.60;101038.00;;;;5053545;28;20222;-77
2022/12/25 07:23:55;;;;;;;3.97;2.53;;;;;14.70;101041.00;;;;5057660;28;20187;-77
2022/12/25 07:26:22;;;;;;;3.42;2.00;;;;;14.70;101035.00;;;;5057818;28;20212;-78
2022/12/25 07:28:49;;;;;;;3.15;1.90;;;;;14.70;101041.00;;;;5055150;28;20210;-77
2022/12/25 07:31:18;;;;;;;3.55;2.17;;;;;14.70;101038.00;;;;5056934;28;20265;-77
2022/12/25 07:33:47;;;;;;;3.10;2.08;;;;;14.70;101040.00;;;;5060208;28;20201;-77
2022/12/25 07:36:15;;;;;;;3.92;2.13;;;;;14.70;101045.00;;;;5064330;28;20706;-77
2022/12/25 07:38:42;;;;;;;5.38;2.47;;;;;14.80;101034.00;;;;5055231;28;20202;-77
2022/12/25 07:41:12;;;;;;;4.88;2.42;;;;;14.80;101035.00;;;;5054699;28;20214;-78
2022/12/25 07:43:41;;;;;;;6.65;2.53;;;;;14.80;101044.00;;;;5051805;28;20286;-77
2022/12/25 07:46:09;;;;;;;6.55;2.50;;;;;14.80;101040.00;;;;5057273;28;20665;-77
2022/12/25 07:48:37;;;;;;;6.40;2.72;;;;;14.80;101041.00;;;;5053809;28;20210;-78
2022/12/25 07:51:07;;;;;;;4.90;2.25;;;;;14.80;101053.00;;;;5056513;28;20191;-77
2022/12/25 07:53:37;;;;;;;6.38;2.17;;;;;14.80;101052.00;;;;5058500;28;20187;-77
2022/12/25 07:56:06;;;;;;;6.22;2.15;;;;;14.80;101050.00;;;;5058820;28;20594;-78
2022/12/25 07:58:34;;;;;;;3.90;1.98;;;;;14.90;101042.00;;;;5054324;28;20202;-78
2022/12/25 08:01:04;;;;;;;2.88;1.92;;;;;14.90;101045.00;;;;5055534;28;20928;-79
2022/12/25 08:03:31;;;;;;;4.03;2.00;;;;;14.90;101046.00;;;;5057413;28;20210;-77
2022/12/25 08:06:00;;;;;;;3.60;2.30;;;;;14.90;101042.00;;;;5048813;28;20202;-78
2022/12/25 08:08:29;;;;;;;3.72;2.55;;;;;14.90;101059.00;;;;5049198;28;20276;-78
2022/12/25 08:10:56;;;;;;;3.88;2.63;;;;;14.90;101061.00;;;;5056767;28;20736;-77
2022/12/25 08:13:23;;;;;;;5.15;2.42;;;;;14.90;101068.00;;;;5059098;28;20195;-78
2022/12/25 08:15:56;;;;;;;5.00;2.45;;;;;14.90;101077.00;;;;5059805;28;20215;-78
2022/12/25 08:18:24;;;;;;;2.50;2.15;;;;;14.90;101081.00;;;;5054994;28;20191;-75
2022/12/25 08:20:51;;;;;;;4.47;1.90;;;;;15.00;101086.00;;;;5053024;28;20218;-75
2022/12/25 08:23:19;;;;;;;4.00;2.28;;;;;15.00;101091.00;;;;5061784;28;20265;-76
2022/12/25 08:25:47;;;;;;;4.65;2.50;;;;;15.00;101076.00;;;;5057930;28;20198;-75
2022/12/25 08:28:14;;;;;;;3.72;2.40;;;;;15.00;101078.00;;;;5058079;28;20204;-76
2022/12/25 08:30:42;;;;;;;4.30;2.28;;;;;15.00;101078.00;;;;5055226;28;20412;-77
2022/12/25 08:33:09;;;;;;;2.78;1.98;;;;;15.00;101075.00;;;;5053690;28;20191;-77
2022/12/25 08:35:37;;;;;;;3.70;2.60;;;;;15.00;101054.00;;;;5056401;28;20224;-77
2022/12/25 08:38:04;;;;;;;4.90;2.55;;;;;15.00;101075.00;;;;5063423;28;20191;-76
2022/12/25 08:40:32;;;;;;;3.92;2.22;;;;;15.00;101070.00;;;;5060770;28;20195;-76
2022/12/25 08:43:00;;;;;;;3.05;1.92;;;;;15.10;101056.00;;;;5052401;28;20580;-76
2022/12/25 08:45:28;;;;;;;4.47;2.50;;;;;15.10;101053.00;;;;5064749;28;20195;-76
2022/12/25 08:47:56;;;;;;;3.15;2.08;;;;;15.10;101044.00;;;;5058407;28;20215;-78
2022/12/25 08:50:23;;;;;;;2.25;2.00;;;;;15.10;101038.00;;;;5056560;28;20204;-76
2022/12/25 08:52:51;;;;;;;5.65;2.10;;;;;15.10;101047.00;;;;5051333;28;20266;-76
2022/12/25 08:55:18;;;;;;;3.75;2.28;;;;;15.10;101049.00;;;;5056587;28;20219;-76
2022/12/25 08:57:45;;;;;;;5.10;1.85;;;;;15.10;101060.00;;;;5057725;28;20199;-76
2022/12/25 09:00:16;;;;;;;4.95;2.38;;;;;15.10;101058.00;;;;5058022;28;20203;-75
2022/12/25 09:02:43;;;;;;;5.82;2.20;;;;;15.10;101054.00;;;;5051851;28;20208;-75
2022/12/25 09:05:11;;;;;;;1.98;1.75;;;;;15.20;101048.00;;;;5055367;28;20229;-77
2022/12/25 09:07:38;;;;;;;3.13;1.52;;;;;15.10;101052.00;;;;5049772;28;20196;-77
2022/12/25 09:10:07;;;;;;;4.03;2.40;;;;;15.10;101046.00;;;;5053161;28;20202;-77
2022/12/25 09:12:35;;;;;;;2.28;1.80;;;;;15.20;101041.00;;;;5060206;28;20206;-77
2022/12/25 09:15:05;;;;;;;5.22;2.00;;;;;15.20;101050.00;;;;5051204;28;20196;-76
2022/12/25 09:17:33;;;;;;;2.65;2.03;;;;;15.20;101056.00;;;;5049305;28;20203;-76
2022/12/25 09:20:01;;;;;;;3.03;2.00;;;;;15.20;101056.00;;;;5048220;28;20211;-77
2022/12/25 09:22:28;;;;;;;2.40;1.75;;;;;15.20;101064.00;;;;5047254;28;20199;-76
2022/12/25 09:24:55;;;;;;;3.40;1.77;;;;;15.20;101061.00;;;;5048215;28;20192;-77
2022/12/25 09:27:22;;;;;;;2.85;1.80;;;;;15.20;101074.00;;;;5050702;28;20192;-76
2022/12/25 09:29:50;;;;;;;2.95;1.75;;;;;15.20;101068.00;;;;5048845;28;20205;-77
2022/12/25 09:32:17;;;;;;;3.85;1.83;;;;;15.20;101075.00;;;;5053651;28;20215;-77
2022/12/25 09:34:46;;;;;;;3.45;2.33;;;;;15.20;101078.00;;;;5063172;28;20210;-77
2022/12/25 09:37:13;;;;;;;2.53;1.67;;;;;15.30;101089.00;;;;5060653;28;20222;-77
2022/12/25 09:39:41;;;;;;;4.28;1.95;;;;;15.30;101093.00;;;;5058662;28;20187;-77
2022/12/25 09:42:14;;;;;;;3.00;1.85;;;;;15.30;101089.00;;;;5057467;28;20191;-76
2022/12/25 09:44:49;;;;;;;1.83;1.45;;;;;15.20;101065.00;;;;5056023;28;20565;-76
2022/12/25 09:47:20;;;;;;;2.22;1.77;;;;;15.30;101046.00;;;;5050401;28;20207;-77
2022/12/25 09:49:54;;;;;;;3.60;1.90;;;;;15.30;101050.00;;;;5052024;28;20196;-77
2022/12/25 09:52:25;;;;;;;3.33;2.08;;;;;15.40;101070.00;;;;5055707;28;20198;-78
2022/12/25 09:54:57;;;;;;;4.18;2.20;;;;;15.30;101059.00;;;;5056789;28;20674;-78
2022/12/25 09:57:25;;;;;;;1.92;1.77;;;;;15.40;101051.00;;;;5052029;28;20219;-78
2022/12/25 09:59:54;;;;;;;3.45;2.20;;;;;15.40;101036.00;;;;5048598;28;20276;-78
2022/12/25 10:02:53;;;;;;;4.55;2.35;;;;;15.30;101039.00;;;;5045766;28;20200;-78
2022/12/25 10:05:55;;;;;;;3.80;2.40;;;;;15.30;101044.00;;;;5052385;28;20195;-78
2022/12/25 10:08:35;;;;;;;3.65;2.03;;;;;15.30;101053.00;;;;5051790;28;20195;-78
2022/12/25 10:11:15;;;;;;;3.05;2.25;;;;;15.40;101035.00;;;;5057479;28;20597;-78
2022/12/25 10:13:59;;;;;;;3.88;2.17;;;;;15.30;101035.00;;;;5048911;28;20211;-78
2022/12/25 10:16:33;;;;;;;3.28;2.05;;;;;15.40;101030.00;;;;5046100;28;20242;-78
2022/12/25 10:19:23;;;;;;;4.03;2.78;;;;;15.30;101027.00;;;;5057146;28;20566;-78
2022/12/25 10:21:56;;;;;;;2.42;2.05;;;;;15.40;101012.00;;;;5049079;28;20924;-78
2022/12/25 10:24:32;;;;;;;3.05;1.77;;;;;15.40;101030.00;;;;5055895;28;20203;-78
2022/12/25 10:27:03;;;;;;;2.72;2.03;;;;;15.50;101025.00;;;;5053253;28;20697;-78
2022/12/25 10:29:34;;;;;;;4.38;2.45;;;;;15.50;101015.00;;;;5049285;28;20196;-78
2022/12/25 10:32:01;;;;;;;3.88;1.83;;;;;15.50;101019.00;;;;5056013;28;20191;-78
2022/12/25 10:34:29;;;;;;;2.20;2.00;;;;;15.50;101008.00;;;;5053165;28;20206;-78
2022/12/25 10:37:00;;;;;;;2.47;1.77;;;;;15.50;100994.00;;;;5057324;28;20245;-78
2022/12/25 10:39:28;;;;;;;2.35;2.08;;;;;15.60;101000.00;;;;5048458;28;20191;-78
2022/12/25 10:42:26;;;;;;;3.92;2.20;;;;;15.50;101014.00;;;;5062151;28;20199;-78
2022/12/25 10:44:57;;;;;;;3.50;2.25;;;;;15.60;101005.00;;;;5052662;28;20203;-78
2022/12/25 10:47:27;;;;;;;2.22;1.80;;;;;15.60;101006.00;;;;5052507;28;20206;-78
2022/12/25 10:49:55;;;;;;;2.90;1.65;;;;;15.60;100999.00;;;;5048108;28;20218;-78
2022/12/25 10:52:26;;;;;;;3.15;2.10;;;;;15.60;100995.00;;;;5048126;28;20681;-79
2022/12/25 10:54:53;;;;;;;4.45;2.25;;;;;15.60;100984.00;;;;5055241;28;20204;-78
2022/12/25 10:57:23;;;;;;;2.08;1.88;;;;;15.60;100975.00;;;;5048950;28;20223;-78
2022/12/25 10:59:54;;;;;;;4.07;2.25;;;;;15.60;100969.00;;;;5059396;28;20684;-78
2022/12/25 11:02:25;;;;;;;5.28;2.40;;;;;15.60;100963.00;;;;5050542;28;20199;-78
2022/12/25 11:05:00;;;;;;;3.83;2.30;;;;;15.60;100971.00;;;;5053740;28;20223;-78
2022/12/25 11:07:30;;;;;;;3.45;2.22;;;;;15.60;100950.00;;;;5049344;28;20195;-78
2022/12/25 11:10:00;;;;;;;3.65;2.20;;;;;15.60;100951.00;;;;5060043;28;20203;-78
2022/12/25 11:12:31;;;;;;;4.22;2.28;;;;;15.60;100938.00;;;;5056609;28;20191;-77
2022/12/25 11:15:27;;;;;;;2.47;2.10;;;;;15.60;100934.00;;;;5053438;28;20291;-76
2022/12/25 11:17:54;;;;;;;4.07;2.40;;;;;15.70;100927.00;;;;5057836;28;20200;-77
2022/12/25 11:20:24;;;;;;;3.72;2.30;;;;;15.60;100930.00;;;;5062873;28;20237;-77
2022/12/25 11:22:53;;;;;;;2.45;2.03;;;;;15.60;100921.00;;;;5056485;28;20208;-79
2022/12/25 11:25:23;;;;;;;3.53;2.42;;;;;15.60;100919.00;;;;5064972;28;20203;-78
2022/12/25 11:27:58;;;;;;;4.05;1.85;;;;;15.60;100922.00;;;;5057612;28;20198;-78
2022/12/25 11:30:26;;;;;;;2.67;2.15;;;;;15.70;100916.00;;;;5054843;28;20201;-78
2022/12/25 11:32:57;;;;;;;3.67;2.92;;;;;15.70;100902.00;;;;5061720;28;20190;-78
2022/12/25 11:35:31;;;;;;;2.70;2.00;;;;;15.60;100886.00;;;;5056886;28;20226;-79
2022/12/25 11:38:00;;;;;;;3.90;2.30;;;;;15.70;100883.00;;;;5061317;28;20198;-78
2022/12/25 11:40:34;;;;;;;4.90;2.47;;;;;15.70;100883.00;;;;5062901;28;20254;-79
2022/12/25 11:43:07;;;;;;;4.95;2.67;;;;;15.70;100882.00;;;;5051511;28;20226;-78
2022/12/25 11:45:38;;;;;;;3.45;2.47;;;;;15.70;100891.00;;;;5063794;28;20202;-78
2022/12/25 11:48:13;;;;;;;4.68;2.00;;;;;15.80;100879.00;;;;5058625;28;20207;-78
2022/12/25 11:50:45;;;;;;;2.40;2.20;;;;;15.80;100871.00;;;;5059860;28;20202;-78
2022/12/25 11:53:20;;;;;;;4.95;2.42;;;;;15.70;100874.00;;;;5049584;28;20238;-77
2022/12/25 11:55:53;;;;;;;3.67;2.22;;;;;15.80;100887.00;;;;5050545;28;20679;-77
2022/12/25 11:58:24;;;;;;;4.10;2.90;;;;;15.80;100887.00;;;;5050118;28;20610;-78
2022/12/25 12:00:55;;;;;;;4.38;2.58;;;;;15.80;100882.00;;;;5054621;28;21012;-76
2022/12/25 12:03:26;;;;;;;4.63;2.47;;;;;15.80;100887.00;;;;5050394;28;20200;-78
2022/12/25 12:05:57;;;;;;;5.75;2.65;;;;;15.80;100887.00;;;;5059448;28;20210;-77
2022/12/25 12:08:26;;;;;;;4.97;2.47;;;;;15.90;100882.00;;;;5051590;28;20195;-77
2022/12/25 12:11:16;;;;;;;3.67;2.58;;;;;15.80;100882.00;;;;5049093;28;20206;-77
2022/12/25 12:14:06;;;;;;;5.63;2.90;;;;;15.80;100877.00;;;;5049612;28;20211;-78
2022/12/25 12:16:35;;;;;;;2.90;1.90;;;;;15.90;100872.00;;;;5049079;28;20234;-78
2022/12/25 12:19:12;;;;;;;4.38;2.45;;;;;15.80;100876.00;;;;5054340;28;20281;-78
2022/12/25 12:21:42;;;;;;;3.53;2.63;;;;;15.90;100855.00;;;;5061616;28;20237;-77
2022/12/25 12:24:16;;;;;;;4.18;2.97;;;;;15.90;100848.00;;;;5052445;28;20200;-78
2022/12/25 12:26:47;;;;;;;5.40;3.03;;;;;15.90;100858.00;;;;5052113;28;20199;-78
2022/12/25 12:29:24;;;;;;;3.08;2.78;;;;;15.90;100854.00;;;;5055646;28;20250;-77
2022/12/25 12:31:53;;;;;;;9.40;3.17;;;;;16.00;100860.00;;;;5057245;28;20210;-78
2022/12/25 12:34:23;;;;;;;3.13;2.53;;;;;16.00;100846.00;;;;5057459;28;20203;-78
2022/12/25 12:36:54;;;;;;;3.03;2.35;;;;;16.00;100846.00;;;;5059334;28;20238;-78
2022/12/25 12:39:28;;;;;;;4.68;3.30;;;;;16.00;100854.00;;;;5051679;28;20233;-78
2022/12/25 12:41:55;;;;;;;3.63;2.80;;;;;16.00;100834.00;;;;5059390;28;20194;-78
2022/12/25 12:44:26;;;;;;;4.00;3.08;;;;;16.00;100833.00;;;;5061037;28;20230;-78
2022/12/25 12:46:56;;;;;;;3.67;3.00;;;;;16.00;100835.00;;;;5056374;28;20207;-79
2022/12/25 12:49:25;;;;;;;4.63;3.00;;;;;16.00;100839.00;;;;5059620;28;20207;-79
2022/12/25 12:52:04;;;;;;;3.47;2.85;;;;;15.90;100829.00;;;;5054717;28;20199;-79
2022/12/25 12:54:49;;;;;;;3.78;2.55;;;;;15.90;100839.00;;;;5063944;28;20202;-78
2022/12/25 12:57:24;;;;;;;3.30;2.58;;;;;15.90;100844.00;;;;5048185;28;20219;-77
2022/12/25 12:59:51;;;;;;;6.28;2.88;;;;;15.90;100845.00;;;;5049930;28;20204;-77
2022/12/25 13:02:39;;;;;;;9.32;3.20;;;;;15.90;100838.00;;;;5054916;28;20227;-77
2022/12/25 13:05:17;;;;;;;4.30;2.70;;;;;15.90;100819.00;;;;5051927;28;20203;-78
2022/12/25 13:07:56;;;;;;;4.88;3.03;;;;;15.90;100824.00;;;;5058199;28;20687;-77
2022/12/25 13:10:31;;;;;;;5.55;3.67;;;;;15.90;100806.00;;;;5049257;28;20199;-77
2022/12/25 13:13:01;;;;;;;5.00;3.22;;;;;15.90;100803.00;;;;5053530;28;20203;-77
2022/12/25 13:15:30;;;;;;;4.15;3.22;;;;;15.90;100797.00;;;;5050322;28;20206;-77
2022/12/25 13:18:02;;;;;;;6.18;3.30;;;;;15.90;100797.00;;;;5058852;28;20246;-77
2022/12/25 13:20:39;;;;;;;3.83;2.92;;;;;15.90;100793.00;;;;5054728;28;20212;-77
2022/12/25 13:23:14;;;;;;;6.10;3.30;;;;;15.90;100790.00;;;;5054782;28;20199;-77
2022/12/25 13:25:51;;;;;;;3.08;2.75;;;;;15.90;100789.00;;;;5062519;28;20211;-77
2022/12/25 13:28:23;;;;;;;4.45;2.88;;;;;16.00;100783.00;;;;5048082;28;20669;-77
2022/12/25 13:30:51;;;;;;;4.05;3.17;;;;;16.00;100785.00;;;;5056727;28;20294;-77
2022/12/25 13:33:19;;;;;;;4.32;3.25;;;;;16.00;100784.00;;;;5057248;28;20195;-77
2022/12/25 13:35:47;;;;;;;3.75;3.20;;;;;16.00;100786.00;;;;5048200;28;20227;-77
2022/12/25 13:38:17;;;;;;;5.47;3.20;;;;;16.00;100773.00;;;;5058482;28;20239;-78
2022/12/25 13:43:32;;;;;;;9.27;3.42;;;;;16.00;100768.00;;;;5054298;28;20760;-77
2022/12/25 13:46:00;;;;;;;4.47;3.70;;;;;16.00;100771.00;;;;5047730;28;20701;-77
2022/12/25 13:48:30;;;;;;;4.93;4.18;;;;;16.00;100768.00;;;;5053017;28;20187;-77
2022/12/25 13:50:58;;;;;;;4.88;3.72;;;;;16.00;100772.00;;;;5055928;28;20195;-77
2022/12/25 13:53:26;;;;;;;5.25;3.97;;;;;16.00;100774.00;;;;5056966;28;20587;-78
2022/12/25 13:55:56;;;;;;;6.05;3.60;;;;;16.00;100770.00;;;;5065006;28;20249;-77
2022/12/25 13:58:27;;;;;;;4.20;3.30;;;;;16.00;100770.00;;;;5052820;28;20238;-77
2022/12/25 14:00:56;;;;;;;5.30;3.90;;;;;16.00;100772.00;;;;5050355;28;20214;-77
2022/12/25 14:03:35;;;;;;;4.53;3.63;;;;;16.00;100772.00;;;;5058461;28;20227;-78
2022/12/25 14:06:04;;;;;;;5.95;4.18;;;;;16.00;100761.00;;;;5061955;28;20214;-77
2022/12/25 14:08:33;;;;;;;5.65;3.97;;;;;16.00;100767.00;;;;5063298;28;20191;-78